createdAt,value
2016-10-22T00:05:17.250Z,33.3
2016-10-22T00:16:17.268Z,34.2
2016-10-22T00:27:17.216Z,34.1
2016-10-22T00:38:16.866Z,34.9
2016-10-22T00:49:16.727Z,35.3
2016-10-22T01:00:17.543Z,35.6
2016-10-22T01:11:17.529Z,36.2
2016-10-22T01:22:16.518Z,36.5
2016-10-22T01:33:16.793Z,36.8
2016-10-22T01:44:17.122Z,37.2
2016-10-22T01:55:16.909Z,37.2
2016-10-22T02:06:18.273Z,37.6
2016-10-22T02:17:17.551Z,38.2
2016-10-22T02:28:17.412Z,37.6
2016-10-22T02:39:16.656Z,38
2016-10-22T02:50:17.504Z,38.6
2016-10-22T03:01:16.734Z,38.7
2016-10-22T03:12:16.783Z,38.9
2016-10-22T03:23:17.277Z,38.3
2016-10-22T03:34:16.976Z,38.8
2016-10-22T03:45:16.825Z,36.4
2016-10-22T03:56:17.869Z,36.1
2016-10-22T04:07:17.619Z,35
2016-10-22T04:18:17.384Z,35.3
2016-10-22T04:29:17.299Z,34.7
2016-10-22T04:40:16.799Z,34.3
2016-10-22T04:51:18.748Z,33.4
2016-10-22T05:02:17.194Z,32.5
2016-10-22T05:13:17.216Z,32.1
2016-10-22T05:24:16.600Z,31.9
2016-10-22T05:35:17.204Z,30.5
2016-10-22T05:46:17.850Z,31.3
2016-10-22T05:57:16.652Z,30.3
2016-10-22T06:08:16.702Z,33.7
2016-10-22T06:19:17.521Z,34.3
2016-10-22T06:30:17.358Z,34.7
2016-10-22T06:41:16.640Z,35
2016-10-22T06:52:16.969Z,35.5
2016-10-22T07:03:17.326Z,36.1
2016-10-22T07:14:16.839Z,36.8
2016-10-22T07:25:17.234Z,37.6
2016-10-22T07:36:17.790Z,38
2016-10-22T07:47:17.495Z,38.1
2016-10-22T07:58:17.250Z,38.3
2016-10-22T08:09:16.985Z,38.3
2016-10-22T08:20:17.192Z,38.7
2016-10-22T08:31:17.861Z,39.1
2016-10-22T08:42:16.908Z,39.7
2016-10-22T08:53:16.761Z,39.8
2016-10-22T09:04:17.631Z,38.7
2016-10-22T09:15:17.313Z,37.6
2016-10-22T09:26:20.139Z,36.7
2016-10-22T09:37:17.049Z,36.8
2016-10-22T09:48:17.240Z,36
2016-10-22T09:59:16.380Z,35.7
2016-10-22T10:10:17.193Z,34.8
2016-10-22T10:21:17.798Z,34.3
2016-10-22T10:32:17.187Z,34
2016-10-22T10:43:17.186Z,33.7
2016-10-22T10:54:17.277Z,33.2
2016-10-22T11:05:16.748Z,33.1
2016-10-22T11:16:19.140Z,32.5
2016-10-22T11:27:17.726Z,32.2
2016-10-22T11:38:16.905Z,31.7
2016-10-22T11:49:16.802Z,34.5
2016-10-22T12:00:17.375Z,37.9
2016-10-22T12:11:18.036Z,36.4
2016-10-22T12:22:16.939Z,36.4
2016-10-22T12:33:17.626Z,37.2
2016-10-22T12:44:17.192Z,37.6
2016-10-22T12:55:16.983Z,38.4
2016-10-22T13:06:19.271Z,39
2016-10-22T13:17:17.616Z,38.9
2016-10-22T13:28:16.762Z,39.2
2016-10-22T13:39:16.646Z,39.8
2016-10-22T13:50:17.065Z,39.6
2016-10-22T14:01:18.093Z,40.1
2016-10-22T14:12:16.898Z,38.5
2016-10-22T14:23:16.879Z,36.7
2016-10-22T14:34:17.217Z,36
2016-10-22T14:45:17.230Z,36.4
2016-10-22T14:56:18.964Z,35.6
2016-10-22T15:07:16.961Z,35.2
2016-10-22T15:18:16.605Z,34.2
2016-10-22T15:29:16.582Z,33.6
2016-10-22T15:40:17.314Z,33.2
2016-10-22T15:51:18.031Z,33
2016-10-22T16:02:17.024Z,32.7
2016-10-22T16:13:17.017Z,32
2016-10-22T16:24:17.632Z,32
2016-10-22T16:35:17.146Z,31.3
2016-10-22T16:46:18.822Z,34.2
2016-10-22T16:57:17.108Z,34.8
2016-10-22T17:08:17.023Z,35.1
2016-10-22T17:19:17.438Z,34.9
2016-10-22T17:30:17.602Z,35.4
2016-10-22T17:41:17.741Z,35.6
2016-10-22T17:52:17.855Z,36.1
2016-10-22T18:03:17.068Z,36.7
2016-10-22T18:14:16.692Z,36.9
2016-10-22T18:25:16.691Z,37
2016-10-22T18:36:18.853Z,37.1
2016-10-22T18:47:17.306Z,37.6
2016-10-22T18:58:17.211Z,36.7
2016-10-22T19:09:17.112Z,37.4
2016-10-22T19:20:17.126Z,37.5
2016-10-22T19:31:17.915Z,37.6
2016-10-22T19:42:16.788Z,37.4
2016-10-22T19:53:16.741Z,34.2
2016-10-22T20:04:17.119Z,33.7
2016-10-22T20:15:17.379Z,34.3
2016-10-22T20:26:18.900Z,33.4
2016-10-22T20:37:18.600Z,32.4
2016-10-22T20:48:16.548Z,31.7
2016-10-22T20:59:16.956Z,31.5
2016-10-22T21:10:17.075Z,30.5
2016-10-22T21:21:17.956Z,29.9
2016-10-22T21:32:17.624Z,29.3
2016-10-22T21:43:16.594Z,29
2016-10-22T21:54:17.364Z,28.9
2016-10-22T22:05:17.059Z,29.1
2016-10-22T22:16:18.901Z,28.4
2016-10-22T22:27:17.293Z,28.1
2016-10-22T22:38:16.896Z,28
2016-10-22T22:49:17.188Z,27.4
2016-10-22T23:00:17.061Z,30.3
2016-10-22T23:11:17.201Z,30.3
2016-10-22T23:22:16.635Z,31.2
2016-10-22T23:33:16.822Z,31.2
2016-10-22T23:44:17.159Z,31.8
2016-10-22T23:55:17.388Z,31.8
